Time;durP1;ratioP1;P1;durP2;ratioP2;P2;SDS_P1;SDS_P2;PMS_P1;PMS_P2;Temp;Humidity;BMP_temperature;BMP_pressure;BME280_temperature;BME280_humidity;BME280_pressure;Samples;Min_cycle;Max_cycle;Signal;HPM_P1;HPM_P2
2023/09/11 00:00:42;;;;;;;;;;;18.90;60.00;;;;;;5051453;28;20015;-70
2023/09/11 00:03:08;;;;;;;;;;;18.90;60.20;;;;;;5052125;28;20425;-69
2023/09/11 00:05:34;;;;;;;;;;;18.80;60.10;;;;;;5051855;28;19927;-70
2023/09/11 00:08:00;;;;;;;;;;;18.80;60.20;;;;;;5084197;28;19916;-70
2023/09/11 00:10:26;;;;;;;;;;;18.80;60.30;;;;;;5051184;28;20007;-70
2023/09/11 00:12:52;;;;;;;;;;;18.80;60.60;;;;;;5050674;28;19928;-69
2023/09/11 00:15:17;;;;;;;;;;;18.80;60.70;;;;;;5051612;28;19944;-70
2023/09/11 00:17:43;;;;;;;;;;;18.70;60.80;;;;;;5050832;28;20380;-70
2023/09/11 00:20:10;;;;;;;;;;;18.70;60.50;;;;;;5050929;28;19916;-70
2023/09/11 00:22:37;;;;;;;;;;;18.70;60.20;;;;;;5084147;28;19913;-69
2023/09/11 00:25:03;;;;;;;;;;;18.70;60.30;;;;;;5033744;28;19917;-70
2023/09/11 00:27:29;;;;;;;;;;;18.70;60.30;;;;;;5050213;28;19924;-70
2023/09/11 00:29:57;;;;;;;;;;;18.70;60.50;;;;;;5084293;28;19917;-70
2023/09/11 00:32:23;;;;;;;;;;;18.60;60.30;;;;;;5050833;28;20285;-70
2023/09/11 00:34:49;;;;;;;;;;;18.60;60.40;;;;;;5083993;28;19921;-69
2023/09/11 00:37:15;;;;;;;;;;;18.60;60.60;;;;;;5051259;28;20396;-69
2023/09/11 00:39:41;;;;;;;;;;;18.50;61.00;;;;;;5051684;28;19916;-70
2023/09/11 00:42:06;;;;;;;;;;;18.50;61.00;;;;;;5050628;28;20822;-70
2023/09/11 00:44:32;;;;;;;;;;;18.50;61.20;;;;;;5053224;28;20285;-70
2023/09/11 00:46:58;;;;;;;;;;;18.50;61.30;;;;;;5055386;28;19913;-70
2023/09/11 00:49:24;;;;;;;;;;;18.40;61.30;;;;;;5055579;28;19921;-70
2023/09/11 00:51:50;;;;;;;;;;;18.40;61.40;;;;;;5053348;28;19924;-70
2023/09/11 00:54:18;;;;;;;;;;;18.40;60.90;;;;;;5053901;28;19932;-70
2023/09/11 00:56:46;;;;;;;;;;;18.40;61.20;;;;;;5053708;28;20003;-69
2023/09/11 00:59:12;;;;;;;;;;;18.40;61.20;;;;;;5054006;28;19921;-70
2023/09/11 01:01:41;;;;;;;;;;;18.40;61.40;;;;;;5053062;28;19917;-70
2023/09/11 01:04:08;;;;;;;;;;;18.40;61.50;;;;;;5053790;28;19921;-70
2023/09/11 01:06:33;;;;;;;;;;;18.40;61.70;;;;;;5036981;28;19913;-70
2023/09/11 01:09:00;;;;;;;;;;;18.40;62.10;;;;;;5053594;28;19931;-70
2023/09/11 01:11:26;;;;;;;;;;;18.30;62.00;;;;;;5052955;28;19916;-70
2023/09/11 01:13:52;;;;;;;;;;;18.40;61.90;;;;;;5055065;28;19912;-70
2023/09/11 01:16:56;;;;;;;;;;;18.30;61.70;;;;;;5053356;28;19912;-70
2023/09/11 01:19:59;;;;;;;;;;;18.30;61.60;;;;;;5055011;28;19920;-70
2023/09/11 01:23:02;;;;;;;;;;;18.30;61.30;;;;;;5054292;28;20293;-70
2023/09/11 01:25:55;;;;;;;;;;;18.20;61.40;;;;;;5054626;28;19928;-69
2023/09/11 01:29:03;;;;;;;;;;;18.20;61.40;;;;;;5054657;28;19930;-69
2023/09/11 01:31:31;;;;;;;;;;;18.10;61.60;;;;;;5052569;28;19925;-69
2023/09/11 01:34:16;;;;;;;;;;;18.10;62.00;;;;;;5053516;28;20285;-69
2023/09/11 01:36:42;;;;;;;;;;;18.10;62.10;;;;;;5052966;28;20485;-69
2023/09/11 01:39:08;;;;;;;;;;;18.00;61.80;;;;;;5086459;28;20358;-69
2023/09/11 01:41:35;;;;;;;;;;;17.90;61.90;;;;;;5052136;28;19920;-69
2023/09/11 01:44:39;;;;;;;;;;;17.90;62.20;;;;;;5052979;28;20403;-69
2023/09/11 01:47:05;;;;;;;;;;;17.80;61.90;;;;;;5054081;28;19916;-69
2023/09/11 01:49:32;;;;;;;;;;;17.70;61.90;;;;;;5053154;28;19920;-69
2023/09/11 01:51:58;;;;;;;;;;;17.70;61.70;;;;;;5052155;28;19924;-69
2023/09/11 01:54:25;;;;;;;;;;;17.60;61.40;;;;;;5052660;28;19925;-69
2023/09/11 01:56:51;;;;;;;;;;;17.60;61.40;;;;;;5052568;28;19982;-69
2023/09/11 01:59:17;;;;;;;;;;;17.50;61.50;;;;;;5054146;28;20433;-69
2023/09/11 02:02:01;;;;;;;;;;;17.40;61.40;;;;;;5052068;28;19923;-69
2023/09/11 02:04:28;;;;;;;;;;;17.30;61.00;;;;;;5054442;28;19982;-69
2023/09/11 02:06:54;;;;;;;;;;;17.30;61.40;;;;;;5052496;28;20309;-69
2023/09/11 02:09:20;;;;;;;;;;;17.30;61.60;;;;;;5053939;28;20377;-69
2023/09/11 02:11:46;;;;;;;;;;;17.30;61.60;;;;;;5053376;28;19950;-69
2023/09/11 02:14:12;;;;;;;;;;;17.30;61.40;;;;;;5086011;28;19927;-69
2023/09/11 02:16:38;;;;;;;;;;;17.30;61.40;;;;;;5052160;28;20007;-69
2023/09/11 02:19:04;;;;;;;;;;;17.30;61.60;;;;;;5053769;28;19920;-69
2023/09/11 02:21:30;;;;;;;;;;;17.30;62.00;;;;;;5052972;28;20021;-69
2023/09/11 02:23:56;;;;;;;;;;;17.30;62.20;;;;;;5053469;28;20349;-69
2023/09/11 02:26:21;;;;;;;;;;;17.30;62.40;;;;;;5053262;28;20291;-69
2023/09/11 02:28:47;;;;;;;;;;;17.20;62.50;;;;;;5053418;28;19913;-69
2023/09/11 02:31:14;;;;;;;;;;;17.20;62.30;;;;;;5051368;28;19916;-69
2023/09/11 02:33:40;;;;;;;;;;;17.20;62.50;;;;;;5053421;28;20383;-69
2023/09/11 02:36:05;;;;;;;;;;;17.20;62.60;;;;;;5051641;28;19917;-69
2023/09/11 02:38:31;;;;;;;;;;;17.20;62.30;;;;;;5052131;28;20343;-69
2023/09/11 02:40:57;;;;;;;;;;;17.10;62.30;;;;;;5052423;28;20008;-70
2023/09/11 02:43:23;;;;;;;;;;;17.10;62.00;;;;;;5053324;28;19917;-69
2023/09/11 02:45:49;;;;;;;;;;;17.00;61.70;;;;;;5052859;28;20316;-69
2023/09/11 02:48:15;;;;;;;;;;;16.90;61.70;;;;;;5053125;28;19921;-69
2023/09/11 02:50:41;;;;;;;;;;;16.90;62.00;;;;;;5050949;28;19952;-69
2023/09/11 02:53:08;;;;;;;;;;;16.80;62.20;;;;;;5053167;28;19917;-69
2023/09/11 02:55:53;;;;;;;;;;;16.80;62.20;;;;;;5051365;28;20391;-69
2023/09/11 02:58:19;;;;;;;;;;;16.90;62.20;;;;;;5051611;28;20031;-69
2023/09/11 03:00:45;;;;;;;;;;;16.90;62.20;;;;;;5050900;28;19920;-69
2023/09/11 03:03:11;;;;;;;;;;;17.00;62.20;;;;;;5053476;28;20285;-69
2023/09/11 03:05:37;;;;;;;;;;;17.00;62.10;;;;;;5052829;28;20349;-69
2023/09/11 03:08:03;;;;;;;;;;;17.00;62.60;;;;;;5050714;28;20289;-69
2023/09/11 03:10:29;;;;;;;;;;;17.00;62.50;;;;;;5050584;28;19924;-69
2023/09/11 03:12:55;;;;;;;;;;;17.00;62.30;;;;;;5052670;28;20378;-69
2023/09/11 03:15:42;;;;;;;;;;;17.00;62.90;;;;;;5051100;28;19921;-69
2023/09/11 03:18:09;;;;;;;;;;;17.00;62.90;;;;;;5053019;28;19935;-69
2023/09/11 03:20:35;;;;;;;;;;;17.00;62.80;;;;;;5050377;28;19927;-69
2023/09/11 03:23:00;;;;;;;;;;;17.00;63.60;;;;;;5052721;28;19912;-69
2023/09/11 03:25:26;;;;;;;;;;;17.00;63.20;;;;;;5052476;28;20511;-69
2023/09/11 03:27:53;;;;;;;;;;;17.00;63.50;;;;;;5051426;28;19916;-69
2023/09/11 03:30:19;;;;;;;;;;;17.00;63.20;;;;;;5050144;28;19946;-69
2023/09/11 03:32:45;;;;;;;;;;;17.10;63.80;;;;;;5052420;28;19917;-69
2023/09/11 03:35:10;;;;;;;;;;;17.10;64.40;;;;;;5050649;28;19932;-69
2023/09/11 03:37:37;;;;;;;;;;;17.00;64.30;;;;;;5052330;28;20407;-69
2023/09/11 03:40:07;;;;;;;;;;;17.00;64.30;;;;;;5050506;28;19939;-69
2023/09/11 03:42:53;;;;;;;;;;;16.90;64.50;;;;;;5035012;28;19913;-69
2023/09/11 03:45:19;;;;;;;;;;;16.80;64.70;;;;;;5050444;28;19925;-69
2023/09/11 03:47:44;;;;;;;;;;;16.80;64.70;;;;;;5052203;28;20329;-69
2023/09/11 03:50:10;;;;;;;;;;;16.80;64.50;;;;;;5051228;28;20050;-70
2023/09/11 03:52:36;;;;;;;;;;;16.70;64.30;;;;;;5050987;28;19923;-69
2023/09/11 03:55:03;;;;;;;;;;;16.70;64.20;;;;;;5052273;28;19921;-69
2023/09/11 03:57:29;;;;;;;;;;;16.70;63.30;;;;;;5051078;28;19912;-69
2023/09/11 03:59:55;;;;;;;;;;;16.70;64.00;;;;;;5052263;28;19928;-69
2023/09/11 04:02:21;;;;;;;;;;;16.60;64.10;;;;;;5083395;28;20003;-69
2023/09/11 04:04:47;;;;;;;;;;;16.60;64.40;;;;;;5052082;28;20270;-69
2023/09/11 04:07:12;;;;;;;;;;;16.60;64.40;;;;;;5051846;28;20353;-69
2023/09/11 04:09:38;;;;;;;;;;;16.70;64.30;;;;;;5052215;28;20432;-69
2023/09/11 04:12:05;;;;;;;;;;;16.70;64.40;;;;;;5049742;28;20007;-69
2023/09/11 04:14:31;;;;;;;;;;;16.70;64.30;;;;;;5067563;28;19921;-69
2023/09/11 04:16:57;;;;;;;;;;;16.80;64.60;;;;;;5050406;28;19916;-69
2023/09/11 04:19:23;;;;;;;;;;;16.80;64.70;;;;;;5053693;28;19980;-69
2023/09/11 04:21:48;;;;;;;;;;;16.90;64.70;;;;;;5053845;28;20003;-69
2023/09/11 04:24:14;;;;;;;;;;;16.90;64.90;;;;;;5071081;28;19920;-69
2023/09/11 04:26:41;;;;;;;;;;;16.90;65.20;;;;;;5055578;28;20344;-69
2023/09/11 04:29:11;;;;;;;;;;;16.90;64.60;;;;;;5055829;28;19921;-69
2023/09/11 04:31:38;;;;;;;;;;;17.00;65.00;;;;;;5053760;28;20203;-69
2023/09/11 04:34:04;;;;;;;;;;;17.00;64.80;;;;;;5070827;28;19943;-69
2023/09/11 04:36:30;;;;;;;;;;;17.10;64.60;;;;;;5055385;28;19920;-69
2023/09/11 04:38:56;;;;;;;;;;;17.10;65.50;;;;;;5055535;28;20295;-69
2023/09/11 04:41:22;;;;;;;;;;;17.10;65.70;;;;;;5086673;28;19916;-69
2023/09/11 04:43:48;;;;;;;;;;;17.10;65.50;;;;;;5054079;28;19995;-69
2023/09/11 04:46:13;;;;;;;;;;;17.10;66.10;;;;;;5053868;28;19917;-69
2023/09/11 04:48:39;;;;;;;;;;;17.10;66.20;;;;;;5055401;28;19912;-69
2023/09/11 04:51:05;;;;;;;;;;;17.10;66.40;;;;;;5054544;28;20337;-69
2023/09/11 04:53:31;;;;;;;;;;;17.10;66.90;;;;;;5055335;28;20011;-69
2023/09/11 04:55:57;;;;;;;;;;;17.10;66.80;;;;;;5055348;28;19979;-69
2023/09/11 04:58:25;;;;;;;;;;;17.10;67.00;;;;;;5070595;28;19999;-69
2023/09/11 05:00:52;;;;;;;;;;;17.20;67.40;;;;;;5054386;28;19921;-70
2023/09/11 05:03:18;;;;;;;;;;;17.20;67.50;;;;;;5055530;28;20032;-69
2023/09/11 05:05:44;;;;;;;;;;;17.20;68.50;;;;;;5053706;28;20366;-69
2023/09/11 05:08:10;;;;;;;;;;;17.20;68.50;;;;;;5054001;28;20003;-69
2023/09/11 05:10:55;;;;;;;;;;;17.20;68.60;;;;;;5052883;28;19978;-69
2023/09/11 05:13:21;;;;;;;;;;;17.20;68.90;;;;;;5053896;28;19924;-69
2023/09/11 05:15:48;;;;;;;;;;;17.20;69.60;;;;;;5054958;28;20347;-69
2023/09/11 05:18:14;;;;;;;;;;;17.20;69.40;;;;;;5054758;28;19999;-69
2023/09/11 05:20:40;;;;;;;;;;;17.30;69.10;;;;;;5052720;28;19928;-69
2023/09/11 05:23:06;;;;;;;;;;;17.30;68.60;;;;;;5053605;28;20401;-69
2023/09/11 05:25:33;;;;;;;;;;;17.40;69.10;;;;;;5054546;28;19916;-69
2023/09/11 05:27:59;;;;;;;;;;;17.50;68.90;;;;;;5053961;28;19944;-69
2023/09/11 05:30:25;;;;;;;;;;;17.50;68.80;;;;;;5053004;28;20442;-69
2023/09/11 05:32:52;;;;;;;;;;;17.60;68.90;;;;;;5054859;28;20319;-69
2023/09/11 05:35:19;;;;;;;;;;;17.70;69.00;;;;;;5053025;28;19943;-69
2023/09/11 05:37:45;;;;;;;;;;;17.70;68.90;;;;;;5054433;28;19948;-69
2023/09/11 05:40:11;;;;;;;;;;;17.70;69.10;;;;;;5052213;28;19924;-71
2023/09/11 05:42:37;;;;;;;;;;;17.80;68.20;;;;;;5054771;28;19917;-69
2023/09/11 05:45:04;;;;;;;;;;;17.80;68.80;;;;;;5086346;28;19932;-69
2023/09/11 05:47:30;;;;;;;;;;;17.80;69.20;;;;;;5053136;28;19921;-69
2023/09/11 05:50:00;;;;;;;;;;;17.90;68.80;;;;;;5053270;28;19921;-69
2023/09/11 05:52:27;;;;;;;;;;;17.90;69.30;;;;;;5053754;28;19917;-69
2023/09/11 05:54:53;;;;;;;;;;;18.00;68.80;;;;;;5052985;28;19921;-69
2023/09/11 05:57:18;;;;;;;;;;;18.10;68.90;;;;;;5053837;28;19919;-69
2023/09/11 05:59:45;;;;;;;;;;;18.10;68.80;;;;;;5052877;28;19930;-69
2023/09/11 06:02:11;;;;;;;;;;;18.20;68.70;;;;;;5053233;28;20373;-69
2023/09/11 06:04:37;;;;;;;;;;;18.40;68.50;;;;;;5054333;28;19947;-69
2023/09/11 06:07:03;;;;;;;;;;;18.50;68.70;;;;;;5053582;28;20296;-69
2023/09/11 06:09:30;;;;;;;;;;;18.50;67.90;;;;;;5054095;28;19927;-69
2023/09/11 06:11:56;;;;;;;;;;;18.60;68.20;;;;;;5052961;28;20369;-69
2023/09/11 06:14:22;;;;;;;;;;;18.70;68.20;;;;;;5052651;28;19927;-69
2023/09/11 06:16:49;;;;;;;;;;;18.80;67.80;;;;;;5047902;28;20266;-69
2023/09/11 06:19:14;;;;;;;;;;;18.80;67.20;;;;;;5052095;28;19966;-69
2023/09/11 06:21:44;;;;;;;;;;;19.00;67.90;;;;;;5044368;28;19917;-69
2023/09/11 06:24:10;;;;;;;;;;;19.10;67.50;;;;;;5032543;28;19964;-69
2023/09/11 06:26:36;;;;;;;;;;;19.30;67.30;;;;;;5033332;28;19924;-69
2023/09/11 06:29:02;;;;;;;;;;;19.30;66.90;;;;;;5044007;28;20265;-69
2023/09/11 06:31:29;;;;;;;;;;;19.50;66.60;;;;;;5061490;28;19917;-69
2023/09/11 06:33:55;;;;;;;;;;;19.50;66.50;;;;;;5032198;28;19925;-69
2023/09/11 06:36:21;;;;;;;;;;;19.60;66.40;;;;;;5062383;28;20269;-69
2023/09/11 06:38:47;;;;;;;;;;;19.70;66.20;;;;;;5053286;28;19952;-69
2023/09/11 06:41:12;;;;;;;;;;;19.70;66.00;;;;;;5052317;28;19942;-69
2023/09/11 06:43:38;;;;;;;;;;;19.80;66.00;;;;;;5051967;28;19919;-69
2023/09/11 06:46:04;;;;;;;;;;;19.80;65.90;;;;;;5052653;28;20304;-69
2023/09/11 06:48:30;;;;;;;;;;;19.80;66.00;;;;;;5038581;28;20420;-69
2023/09/11 06:50:56;;;;;;;;;;;19.80;65.90;;;;;;5032700;28;20384;-69
2023/09/11 06:53:22;;;;;;;;;;;19.90;65.90;;;;;;5038721;28;19913;-69
2023/09/11 06:55:48;;;;;;;;;;;19.90;65.90;;;;;;5048278;28;19923;-69
2023/09/11 06:58:14;;;;;;;;;;;19.90;65.70;;;;;;5068263;28;19959;-69
2023/09/11 07:00:40;;;;;;;;;;;20.00;65.50;;;;;;5050706;28;19948;-69
2023/09/11 07:03:06;;;;;;;;;;;20.10;65.70;;;;;;5085272;28;19920;-69
2023/09/11 07:05:32;;;;;;;;;;;20.10;65.00;;;;;;5039391;28;20297;-69
2023/09/11 07:07:58;;;;;;;;;;;20.20;65.50;;;;;;5032930;28;20003;-69
2023/09/11 07:10:25;;;;;;;;;;;20.30;65.70;;;;;;5015230;28;20399;-69
2023/09/11 07:12:50;;;;;;;;;;;20.40;65.70;;;;;;5031693;28;19917;-69
2023/09/11 07:15:35;;;;;;;;;;;20.40;66.00;;;;;;5031053;28;20309;-69
2023/09/11 07:18:01;;;;;;;;;;;20.60;65.80;;;;;;5032818;28;19921;-69
2023/09/11 07:20:27;;;;;;;;;;;20.70;66.60;;;;;;5027097;28;20012;-69
2023/09/11 07:22:53;;;;;;;;;;;20.70;66.50;;;;;;5048819;28;19999;-70
2023/09/11 07:25:22;;;;;;;;;;;21.10;66.00;;;;;;5052468;28;20023;-69
2023/09/11 07:27:49;;;;;;;;;;;21.80;65.20;;;;;;5035440;28;19917;-69
2023/09/11 07:30:15;;;;;;;;;;;22.50;64.40;;;;;;5049866;28;20293;-69
2023/09/11 07:32:41;;;;;;;;;;;23.20;63.70;;;;;;5040915;28;19944;-69
2023/09/11 07:35:07;;;;;;;;;;;23.90;62.00;;;;;;5032572;28;19928;-69
2023/09/11 07:37:33;;;;;;;;;;;24.60;59.30;;;;;;5032647;28;19958;-69
2023/09/11 07:40:00;;;;;;;;;;;25.40;58.80;;;;;;5031811;28;20023;-69
2023/09/11 07:42:26;;;;;;;;;;;26.10;56.90;;;;;;5046387;28;20000;-71
2023/09/11 07:44:52;;;;;;;;;;;26.80;54.30;;;;;;5031060;28;20040;-71
2023/09/11 07:47:18;;;;;;;;;;;27.40;52.90;;;;;;5031770;28;19944;-71
2023/09/11 07:49:45;;;;;;;;;;;27.90;50.00;;;;;;5047713;28;19995;-71
2023/09/11 07:52:11;;;;;;;;;;;28.70;48.40;;;;;;5013444;28;19917;-71
2023/09/11 07:54:37;;;;;;;;;;;29.30;45.00;;;;;;5031884;28;20016;-71
2023/09/11 07:57:03;;;;;;;;;;;29.90;42.10;;;;;;5047068;28;20003;-71
2023/09/11 07:59:29;;;;;;;;;;;30.50;40.80;;;;;;5047392;28;19956;-71
2023/09/11 08:01:54;;;;;;;;;;;31.20;41.60;;;;;;5031255;28;19975;-71
2023/09/11 08:04:20;;;;;;;;;;;31.70;38.60;;;;;;5032190;28;19929;-70
2023/09/11 08:06:46;;;;;;;;;;;32.10;36.80;;;;;;5031762;28;20360;-71
2023/09/11 08:09:12;;;;;;;;;;;32.90;35.40;;;;;;5030620;28;19927;-71
2023/09/11 08:11:39;;;;;;;;;;;33.40;34.50;;;;;;5046297;28;19956;-71
2023/09/11 08:14:24;;;;;;;;;;;33.80;33.80;;;;;;5033803;28;20075;-71
2023/09/11 08:16:50;;;;;;;;;;;34.30;32.00;;;;;;5057068;28;20012;-71
2023/09/11 08:19:16;;;;;;;;;;;34.90;29.90;;;;;;5050558;28;19947;-71
2023/09/11 08:21:42;;;;;;;;;;;35.50;29.80;;;;;;5049808;28;19917;-71
2023/09/11 08:24:08;;;;;;;;;;;36.00;29.10;;;;;;5051827;28;20015;-71
2023/09/11 08:26:34;;;;;;;;;;;36.60;28.00;;;;;;5050342;28;19912;-71
2023/09/11 08:29:02;;;;;;;;;;;37.00;27.30;;;;;;5040989;28;19921;-71
2023/09/11 08:31:29;;;;;;;;;;;37.40;26.80;;;;;;5030978;28;20130;-71
2023/09/11 08:33:55;;;;;;;;;;;37.90;25.30;;;;;;5030553;28;20362;-71
2023/09/11 08:36:21;;;;;;;;;;;38.30;25.60;;;;;;5055119;28;19927;-71
2023/09/11 08:38:47;;;;;;;;;;;38.70;24.90;;;;;;5050262;28;19966;-71
2023/09/11 08:41:14;;;;;;;;;;;39.20;24.00;;;;;;5050754;28;19917;-71
2023/09/11 08:43:40;;;;;;;;;;;39.40;23.60;;;;;;5050621;28;19913;-71
2023/09/11 08:46:27;;;;;;;;;;;39.70;22.80;;;;;;5050764;28;19917;-71
2023/09/11 08:49:12;;;;;;;;;;;40.10;22.60;;;;;;5050447;28;19912;-71
2023/09/11 08:51:43;;;;;;;;;;;40.40;22.50;;;;;;5049569;28;20373;-71
2023/09/11 08:54:09;;;;;;;;;;;41.10;22.10;;;;;;5050492;28;20003;-71
2023/09/11 08:56:35;;;;;;;;;;;41.60;20.90;;;;;;5050108;28;19923;-71
2023/09/11 08:59:02;;;;;;;;;;;42.00;20.10;;;;;;5050176;28;20277;-71
2023/09/11 09:01:28;;;;;;;;;;;42.30;20.40;;;;;;5045968;28;19921;-71
2023/09/11 09:03:54;;;;;;;;;;;42.60;20.00;;;;;;5029852;28;20008;-71
2023/09/11 09:06:21;;;;;;;;;;;43.10;20.00;;;;;;5039591;28;19921;-70
2023/09/11 09:08:47;;;;;;;;;;;43.70;19.30;;;;;;5028602;28;20277;-71
2023/09/11 09:11:13;;;;;;;;;;;44.40;18.70;;;;;;5042268;28;19921;-71
2023/09/11 09:13:39;;;;;;;;;;;44.70;18.10;;;;;;5053880;28;20324;-71
2023/09/11 09:16:05;;;;;;;;;;;45.00;17.90;;;;;;5054470;28;19917;-71
2023/09/11 09:18:31;;;;;;;;;;;45.20;17.60;;;;;;5070210;28;20289;-70
2023/09/11 09:20:57;;;;;;;;;;;45.50;17.20;;;;;;5051978;28;19974;-71
2023/09/11 09:23:41;;;;;;;;;;;45.80;16.80;;;;;;5054767;28;19913;-71
2023/09/11 09:26:09;;;;;;;;;;;46.40;15.80;;;;;;5054560;28;19921;-71
2023/09/11 09:29:02;;;;;;;;;;;46.60;15.90;;;;;;5053113;28;19913;-71
2023/09/11 09:31:29;;;;;;;;;;;46.90;15.80;;;;;;5053736;28;19928;-71
2023/09/11 09:33:55;;;;;;;;;;;47.40;15.60;;;;;;5053187;28;19931;-71
2023/09/11 09:36:22;;;;;;;;;;;47.80;14.20;;;;;;5054139;28;19967;-71
2023/09/11 09:38:48;;;;;;;;;;;47.90;14.70;;;;;;5053196;28;19955;-71
2023/09/11 09:41:16;;;;;;;;;;;48.40;14.40;;;;;;5052317;28;19921;-71
2023/09/11 09:43:52;;;;;;;;;;;48.80;13.40;;;;;;5036633;28;19984;-72
2023/09/11 09:46:19;;;;;;;;;;;49.20;13.40;;;;;;5050637;28;19929;-70
2023/09/11 09:48:45;;;;;;;;;;;49.50;13.30;;;;;;5054223;28;19919;-71
2023/09/11 09:51:11;;;;;;;;;;;49.70;13.20;;;;;;5048543;28;19917;-70
2023/09/11 09:53:44;;;;;;;;;;;49.90;13.00;;;;;;5032944;28;20369;-70
2023/09/11 09:56:11;;;;;;;;;;;50.20;12.00;;;;;;5035935;28;20459;-71
2023/09/11 09:58:55;;;;;;;;;;;50.40;11.90;;;;;;5036130;28;19963;-71
2023/09/11 10:01:21;;;;;;;;;;;50.70;12.10;;;;;;5033154;28;19925;-71
2023/09/11 10:03:48;;;;;;;;;;;50.90;12.10;;;;;;5041098;28;19935;-71
2023/09/11 10:06:32;;;;;;;;;;;51.30;11.50;;;;;;5053593;28;19917;-71
2023/09/11 10:09:19;;;;;;;;;;;51.40;11.30;;;;;;5035762;28;19939;-71
2023/09/11 10:11:44;;;;;;;;;;;50.20;12.30;;;;;;5051891;28;20381;-71
2023/09/11 10:14:10;;;;;;;;;;;48.60;12.60;;;;;;5051535;28;19963;-70
2023/09/11 10:16:36;;;;;;;;;;;47.90;13.10;;;;;;5051738;28;19959;-71
2023/09/11 10:19:03;;;;;;;;;;;48.80;13.20;;;;;;5052324;28;19920;-70
2023/09/11 10:21:30;;;;;;;;;;;50.00;12.60;;;;;;5031721;28;19917;-71
2023/09/11 10:23:56;;;;;;;;;;;50.60;11.90;;;;;;5032414;28;20179;-71
2023/09/11 10:27:00;;;;;;;;;;;50.80;12.20;;;;;;5037185;28;19916;-70
2023/09/11 10:30:03;;;;;;;;;;;51.30;11.90;;;;;;5035947;28;20290;-70
2023/09/11 10:32:50;;;;;;;;;;;50.70;12.10;;;;;;5031071;28;19967;-70
2023/09/11 10:35:16;;;;;;;;;;;49.10;13.20;;;;;;5031773;28;19921;-70
2023/09/11 10:37:42;;;;;;;;;;;48.20;13.50;;;;;;5032191;28;19913;-71
2023/09/11 10:40:09;;;;;;;;;;;47.30;14.50;;;;;;5031302;28;19921;-71
2023/09/11 10:42:35;;;;;;;;;;;46.90;14.50;;;;;;5032206;28;19913;-70
2023/09/11 10:45:03;;;;;;;;;;;46.20;14.90;;;;;;5033398;28;20289;-71
2023/09/11 10:47:29;;;;;;;;;;;45.30;16.00;;;;;;5033412;28;19913;-71
2023/09/11 10:50:14;;;;;;;;;;;44.80;15.70;;;;;;5028527;28;19936;-70
2023/09/11 10:52:39;;;;;;;;;;;43.90;16.80;;;;;;5048159;28;19917;-71
2023/09/11 10:55:08;;;;;;;;;;;43.50;16.70;;;;;;5032949;28;19921;-71
2023/09/11 10:57:34;;;;;;;;;;;43.80;16.20;;;;;;5031878;28;19992;-70
2023/09/11 11:00:01;;;;;;;;;;;44.40;15.40;;;;;;5031768;28;19921;-70
2023/09/11 11:02:29;;;;;;;;;;;43.60;16.10;;;;;;5031087;28;20004;-70
2023/09/11 11:04:55;;;;;;;;;;;43.00;17.00;;;;;;5033217;28;19921;-70
2023/09/11 11:07:22;;;;;;;;;;;42.20;17.40;;;;;;5048040;28;19916;-70
2023/09/11 11:09:49;;;;;;;;;;;41.60;18.50;;;;;;5048161;28;19959;-71
2023/09/11 11:12:50;;;;;;;;;;;41.30;17.70;;;;;;5030579;28;19982;-71
2023/09/11 11:15:23;;;;;;;;;;;42.40;17.30;;;;;;5032735;28;20317;-71
2023/09/11 11:18:06;;;;;;;;;;;42.30;17.50;;;;;;5031656;28;19923;-71
2023/09/11 11:20:33;;;;;;;;;;;42.10;17.90;;;;;;5046909;28;19932;-71
2023/09/11 11:23:18;;;;;;;;;;;42.10;18.00;;;;;;5031538;28;19958;-70
2023/09/11 11:25:47;;;;;;;;;;;41.80;18.40;;;;;;5032704;28;19913;-70
2023/09/11 11:28:50;;;;;;;;;;;42.10;18.30;;;;;;5031781;28;19968;-70
2023/09/11 11:31:35;;;;;;;;;;;42.20;18.10;;;;;;5031628;28;20438;-70
2023/09/11 11:34:01;;;;;;;;;;;44.00;17.30;;;;;;5031030;28;20012;-71
2023/09/11 11:36:27;;;;;;;;;;;46.30;15.00;;;;;;5030969;28;19917;-71
2023/09/11 11:41:39;;;;;;;;;;;49.20;13.00;;;;;;5031419;28;19935;-70
2023/09/11 11:44:05;;;;;;;;;;;49.30;13.10;;;;;;5030930;28;19924;-71
2023/09/11 11:46:32;;;;;;;;;;;47.30;13.30;;;;;;5047529;28;20259;-70
2023/09/11 11:48:59;;;;;;;;;;;46.50;14.80;;;;;;5031166;28;19975;-71
2023/09/11 11:51:44;;;;;;;;;;;46.10;15.20;;;;;;5031515;28;19921;-71
2023/09/11 11:54:29;;;;;;;;;;;45.30;15.40;;;;;;5030911;28;19932;-70
2023/09/11 11:56:55;;;;;;;;;;;46.90;14.70;;;;;;5031957;28;20012;-71
2023/09/11 11:59:21;;;;;;;;;;;47.10;14.60;;;;;;5047322;28;19925;-70
2023/09/11 12:01:47;;;;;;;;;;;46.50;14.80;;;;;;5031530;28;19917;-70
2023/09/11 12:04:13;;;;;;;;;;;45.50;16.00;;;;;;5032142;28;20280;-71
2023/09/11 12:06:39;;;;;;;;;;;44.60;16.80;;;;;;5031919;28;20003;-70
2023/09/11 12:09:05;;;;;;;;;;;44.90;16.20;;;;;;5032189;28;19921;-70
2023/09/11 12:11:31;;;;;;;;;;;45.20;16.80;;;;;;5029934;28;20275;-70
2023/09/11 12:13:57;;;;;;;;;;;45.40;16.30;;;;;;5032086;28;20011;-71
2023/09/11 12:16:23;;;;;;;;;;;46.00;15.70;;;;;;5031731;28;19913;-70
2023/09/11 12:18:49;;;;;;;;;;;46.00;15.50;;;;;;5030581;28;20301;-71
2023/09/11 12:21:15;;;;;;;;;;;45.80;15.70;;;;;;5029933;28;19924;-71
2023/09/11 12:23:40;;;;;;;;;;;45.20;16.30;;;;;;5031936;28;19913;-70
2023/09/11 12:26:06;;;;;;;;;;;46.20;15.90;;;;;;5031559;28;19917;-70
2023/09/11 12:28:33;;;;;;;;;;;48.10;14.50;;;;;;5047444;28;19928;-70
2023/09/11 12:30:59;;;;;;;;;;;49.70;13.10;;;;;;5031365;28;19925;-71
2023/09/11 12:33:45;;;;;;;;;;;50.80;12.10;;;;;;5030758;28;19917;-70
2023/09/11 12:36:11;;;;;;;;;;;51.80;11.60;;;;;;5031397;28;19967;-70
2023/09/11 12:38:37;;;;;;;;;;;52.40;11.40;;;;;;5047220;28;19913;-70
2023/09/11 12:41:04;;;;;;;;;;;53.10;11.20;;;;;;5033450;28;19921;-71
2023/09/11 12:43:30;;;;;;;;;;;53.40;10.70;;;;;;5051084;28;20369;-71
2023/09/11 12:45:55;;;;;;;;;;;53.70;10.60;;;;;;5050709;28;19921;-70
2023/09/11 12:48:22;;;;;;;;;;;54.10;10.70;;;;;;5034571;28;19921;-71
2023/09/11 12:50:48;;;;;;;;;;;54.40;9.90;;;;;;5050056;28;20059;-70
2023/09/11 12:53:14;;;;;;;;;;;54.70;10.00;;;;;;5050931;28;19913;-71
2023/09/11 12:55:40;;;;;;;;;;;55.10;9.50;;;;;;5050583;28;19963;-71
2023/09/11 12:58:09;;;;;;;;;;;55.40;9.60;;;;;;5034333;28;19924;-70
2023/09/11 13:00:35;;;;;;;;;;;55.10;10.00;;;;;;5034650;28;19921;-70
2023/09/11 13:03:02;;;;;;;;;;;55.30;10.00;;;;;;5035386;28;20381;-70
2023/09/11 13:05:29;;;;;;;;;;;55.60;9.80;;;;;;5033555;28;19975;-71
2023/09/11 13:07:55;;;;;;;;;;;55.50;9.40;;;;;;5034168;28;19949;-70
2023/09/11 13:10:22;;;;;;;;;;;55.50;9.20;;;;;;5049569;28;19921;-71
2023/09/11 13:12:48;;;;;;;;;;;55.70;9.60;;;;;;5050619;28;19913;-71
2023/09/11 13:15:14;;;;;;;;;;;56.20;9.80;;;;;;5034887;28;20269;-71
2023/09/11 13:17:41;;;;;;;;;;;56.40;9.10;;;;;;5035004;28;19927;-70
2023/09/11 13:20:07;;;;;;;;;;;56.80;8.50;;;;;;5034377;28;19917;-70
2023/09/11 13:22:33;;;;;;;;;;;56.60;8.50;;;;;;5034962;28;19913;-71
2023/09/11 13:24:59;;;;;;;;;;;56.90;8.70;;;;;;5033732;28;19917;-70
2023/09/11 13:27:25;;;;;;;;;;;56.40;8.60;;;;;;5033381;28;19923;-70
2023/09/11 13:29:52;;;;;;;;;;;56.30;9.40;;;;;;5050153;28;19967;-70
2023/09/11 13:32:18;;;;;;;;;;;56.80;9.00;;;;;;5049315;28;19925;-71
2023/09/11 13:34:44;;;;;;;;;;;56.80;9.10;;;;;;5034964;28;20412;-70
2023/09/11 13:37:11;;;;;;;;;;;56.80;8.60;;;;;;5049532;28;20381;-71
2023/09/11 13:39:37;;;;;;;;;;;56.90;8.70;;;;;;5049986;28;20275;-71
2023/09/11 13:42:03;;;;;;;;;;;57.20;9.40;;;;;;5033595;28;20138;-70
2023/09/11 13:44:29;;;;;;;;;;;57.30;8.60;;;;;;5033090;28;19940;-70
2023/09/11 13:46:55;;;;;;;;;;;57.00;9.40;;;;;;5034186;28;19917;-70
2023/09/11 13:49:22;;;;;;;;;;;56.80;9.00;;;;;;5034529;28;19925;-70
2023/09/11 13:51:48;;;;;;;;;;;56.80;8.30;;;;;;5048151;28;19925;-71
2023/09/11 13:54:13;;;;;;;;;;;56.90;9.20;;;;;;5033102;28;20296;-70
2023/09/11 13:56:39;;;;;;;;;;;56.80;8.70;;;;;;5034156;28;20289;-71
2023/09/11 13:59:05;;;;;;;;;;;56.70;9.40;;;;;;5034184;28;20388;-70
2023/09/11 14:01:31;;;;;;;;;;;56.80;8.60;;;;;;5048831;28;19929;-70
2023/09/11 14:03:57;;;;;;;;;;;56.00;9.40;;;;;;5034134;28;20385;-71
2023/09/11 14:06:24;;;;;;;;;;;55.70;9.20;;;;;;5033887;28;20036;-70
2023/09/11 14:08:50;;;;;;;;;;;55.60;9.30;;;;;;5049400;28;20003;-70
2023/09/11 14:11:16;;;;;;;;;;;55.60;9.50;;;;;;5015227;28;19956;-70
2023/09/11 14:13:42;;;;;;;;;;;55.40;10.00;;;;;;5049450;28;19920;-70
2023/09/11 14:16:07;;;;;;;;;;;55.00;9.90;;;;;;5048957;28;20000;-70
2023/09/11 14:18:33;;;;;;;;;;;54.90;9.60;;;;;;5032640;28;19913;-70
2023/09/11 14:20:59;;;;;;;;;;;55.10;10.30;;;;;;5032955;28;20000;-70
2023/09/11 14:23:25;;;;;;;;;;;55.20;10.10;;;;;;5033786;28;20015;-70
2023/09/11 14:25:51;;;;;;;;;;;55.10;10.10;;;;;;5033736;28;19916;-70
2023/09/11 14:28:17;;;;;;;;;;;54.90;9.60;;;;;;5015905;28;19927;-70